Time;durP1;ratioP1;P1;durP2;ratioP2;P2;SDS_P1;SDS_P2;PMS_P1;PMS_P2;Temp;Humidity;BMP_temperature;BMP_pressure;BME280_temperature;BME280_humidity;BME280_pressure;Samples;Min_cycle;Max_cycle;Signal;HPM_P1;HPM_P2
2023/05/19 00:00:13;;;;;;;7.85;6.50;;;;;;;6.65;69.39;102011.69;688146;28;1252;-79
2023/05/19 00:00:35;;;;;;;8.25;6.43;;;;;;;6.65;69.69;102011.69;690652;28;1380;-80
2023/05/19 00:00:57;;;;;;;8.95;6.00;;;;;;;6.71;69.54;102030.28;690808;28;910;-80
2023/05/19 00:01:19;;;;;;;9.10;6.20;;;;;;;6.62;69.63;102009.78;696077;28;1349;-80
2023/05/19 00:01:42;;;;;;;10.82;6.50;;;;;;;6.69;69.50;102024.06;696008;28;1039;-80
2023/05/19 00:02:07;;;;;;;10.68;6.13;;;;;;;6.70;69.92;102020.66;693581;28;1339;-80
2023/05/19 00:02:32;;;;;;;10.65;6.00;;;;;;;6.65;70.24;102017.78;691658;28;1134;-81
2023/05/19 00:02:54;;;;;;;9.82;6.15;;;;;;;6.63;70.04;102023.66;688298;28;1240;-81
2023/05/19 00:03:20;;;;;;;9.93;6.60;;;;;;;6.67;70.24;102020.44;690865;28;1016;-80
2023/05/19 00:03:52;;;;;;;10.95;6.78;;;;;;;6.56;69.93;102007.69;690595;28;1481;-80
2023/05/19 00:04:14;;;;;;;10.18;6.55;;;;;;;6.58;70.11;102011.28;693530;28;1119;-81
2023/05/19 00:04:34;;;;;;;9.88;6.50;;;;;;;6.58;70.16;102019.06;687921;28;1008;-82
2023/05/19 00:04:55;;;;;;;10.02;6.60;;;;;;;6.65;70.37;102022.06;688266;28;812;-80
2023/05/19 00:05:24;;;;;;;8.93;6.40;;;;;;;6.57;70.18;102008.59;688368;28;670;-80
2023/05/19 00:05:45;;;;;;;8.82;6.10;;;;;;;6.60;70.41;102007.88;690777;28;1140;-80
2023/05/19 00:06:10;;;;;;;12.10;6.47;;;;;;;6.58;70.07;102011.28;690939;28;1171;-81
2023/05/19 00:06:32;;;;;;;12.35;6.53;;;;;;;6.61;70.31;102017.44;690401;28;1351;-81
2023/05/19 00:06:53;;;;;;;12.10;6.55;;;;;;;6.56;70.32;102012.88;688042;28;1354;-81
2023/05/19 00:07:18;;;;;;;9.52;6.60;;;;;;;6.58;70.42;102023.38;688101;28;1056;-81
2023/05/19 00:07:40;;;;;;;10.23;6.65;;;;;;;6.64;70.44;102025.44;687989;28;1103;-81
2023/05/19 00:08:01;;;;;;;8.80;6.35;;;;;;;6.59;70.61;102019.97;691003;28;906;-80
2023/05/19 00:08:25;;;;;;;8.52;6.30;;;;;;;6.65;70.78;102030.75;690921;28;879;-80
2023/05/19 00:08:47;;;;;;;7.97;6.20;;;;;;;6.55;70.84;102013.69;690573;28;1896;-80
2023/05/19 00:09:09;;;;;;;9.25;6.63;;;;;;;6.54;70.59;102009.31;693570;28;1261;-80
2023/05/19 00:09:30;;;;;;;11.18;6.60;;;;;;;6.57;70.69;102009.47;690448;28;1415;-80
2023/05/19 00:09:51;;;;;;;11.48;6.65;;;;;;;6.55;70.57;102015.38;690926;28;850;-82
2023/05/19 00:10:23;;;;;;;10.20;6.43;;;;;;;6.48;70.82;102007.97;690687;28;991;-83
2023/05/19 00:10:44;;;;;;;8.20;6.40;;;;;;;6.56;70.62;102018.06;690708;28;1217;-80
2023/05/19 00:11:05;;;;;;;9.00;6.38;;;;;;;6.60;70.45;102023.44;690963;28;1071;-80
2023/05/19 00:11:27;;;;;;;10.18;6.47;;;;;;;6.59;70.39;102025.16;693383;28;1544;-80
2023/05/19 00:12:09;;;;;;;10.93;6.40;;;;;;;6.66;70.73;102034.22;693509;28;1118;-80
2023/05/19 00:12:30;;;;;;;9.63;6.30;;;;;;;6.55;71.16;102013.69;684824;28;1645;-80
2023/05/19 00:12:51;;;;;;;9.35;6.43;;;;;;;6.65;71.07;102033.34;685572;28;878;-80
2023/05/19 00:13:12;;;;;;;9.07;6.70;;;;;;;6.57;70.92;102018.97;690744;28;1153;-80
2023/05/19 00:13:33;;;;;;;10.35;7.15;;;;;;;6.58;70.96;102021.66;687795;28;1150;-80
2023/05/19 00:13:55;;;;;;;11.85;7.65;;;;;;;6.57;71.12;102018.97;688125;28;1145;-80
2023/05/19 00:14:16;;;;;;;12.48;7.63;;;;;;;6.52;70.63;102012.59;682739;28;1224;-80
2023/05/19 00:14:37;;;;;;;12.85;7.75;;;;;;;6.57;70.92;102019.88;687825;28;1259;-80
2023/05/19 00:14:58;;;;;;;12.07;7.05;;;;;;;6.54;70.78;102022.28;688673;28;1176;-79
2023/05/19 00:15:19;;;;;;;10.45;6.82;;;;;;;6.50;71.07;102012.47;691053;28;1528;-80
2023/05/19 00:15:40;;;;;;;10.10;6.78;;;;;;;6.53;71.33;102019.56;691143;28;1118;-80
2023/05/19 00:16:01;;;;;;;9.93;6.80;;;;;;;6.52;71.28;102020.38;694066;28;1120;-81
2023/05/19 00:16:26;;;;;;;8.93;6.80;;;;;;;6.50;70.92;102020.25;693916;28;1934;-80
2023/05/19 00:16:47;;;;;;;10.75;6.88;;;;;;;6.53;71.03;102020.47;691120;28;1256;-80
2023/05/19 00:17:08;;;;;;;11.52;7.20;;;;;;;6.48;71.05;102011.50;688637;28;1368;-80
2023/05/19 00:17:29;;;;;;;11.60;7.20;;;;;;;6.57;71.19;102034.53;685661;28;1154;-80
2023/05/19 00:17:51;;;;;;;9.82;6.85;;;;;;;6.48;70.74;102016.69;688471;28;1097;-79
2023/05/19 00:18:12;;;;;;;9.48;6.60;;;;;;;6.47;71.20;102011.38;691385;28;1164;-80
2023/05/19 00:18:33;;;;;;;9.48;6.20;;;;;;;6.53;70.91;102017.88;690941;28;1117;-80
2023/05/19 00:18:55;;;;;;;9.77;6.63;;;;;;;6.55;70.83;102021.47;691374;28;1188;-80
2023/05/19 00:19:16;;;;;;;11.15;6.97;;;;;;;6.51;70.65;102009.09;693944;28;1215;-80
2023/05/19 00:19:37;;;;;;;12.40;7.28;;;;;;;6.61;71.22;102033.00;685692;28;1363;-80
2023/05/19 00:19:57;;;;;;;11.82;7.22;;;;;;;6.58;71.57;102026.84;691945;28;1566;-80
2023/05/19 00:20:18;;;;;;;11.13;7.03;;;;;;;6.48;71.07;102005.41;693936;28;1506;-80
2023/05/19 00:20:39;;;;;;;10.57;6.90;;;;;;;6.53;71.07;102011.78;696596;28;1359;-80
2023/05/19 00:20:59;;;;;;;11.05;6.78;;;;;;;6.51;71.28;102014.28;694124;28;1758;-80
2023/05/19 00:21:20;;;;;;;10.07;6.78;;;;;;;6.48;71.04;102014.09;693979;28;1293;-80
2023/05/19 00:21:41;;;;;;;9.10;6.50;;;;;;;6.49;70.89;102013.28;693937;28;1243;-79
2023/05/19 00:22:02;;;;;;;8.03;6.63;;;;;;;6.56;70.83;102020.66;688661;28;1165;-80
2023/05/19 00:22:22;;;;;;;9.07;6.70;;;;;;;6.47;70.61;102012.28;691326;28;1256;-80
2023/05/19 00:22:43;;;;;;;9.77;6.80;;;;;;;6.50;71.29;102012.47;693823;28;1248;-79
2023/05/19 00:23:04;;;;;;;10.18;6.90;;;;;;;6.48;71.00;102008.91;694027;28;1081;-80
2023/05/19 00:23:25;;;;;;;10.10;7.00;;;;;;;6.51;71.00;102019.47;696654;28;1116;-80
2023/05/19 00:23:45;;;;;;;10.90;7.03;;;;;;;6.46;70.99;102015.69;693985;28;1087;-80
2023/05/19 00:24:07;;;;;;;10.70;6.75;;;;;;;6.49;71.28;102013.28;691277;28;1438;-80
2023/05/19 00:24:27;;;;;;;10.60;6.78;;;;;;;6.50;71.20;102017.66;691112;28;1346;-81
2023/05/19 00:24:48;;;;;;;10.83;6.80;;;;;;;6.53;71.25;102025.66;691247;28;1243;-80
2023/05/19 00:25:09;;;;;;;10.55;6.80;;;;;;;6.48;71.22;102014.09;691538;28;1126;-79
2023/05/19 00:25:29;;;;;;;10.60;7.22;;;;;;;6.43;70.99;102010.28;685689;28;1199;-80
2023/05/19 00:25:51;;;;;;;9.35;7.03;;;;;;;6.48;70.96;102013.16;686059;28;833;-80
2023/05/19 00:26:11;;;;;;;11.77;7.55;;;;;;;6.48;71.24;102014.09;693443;28;1483;-80
2023/05/19 00:26:36;;;;;;;11.70;6.80;;;;;;;6.42;71.30;102016.28;696559;28;1124;-80
2023/05/19 00:26:59;;;;;;;12.48;6.82;;;;;;;6.42;71.28;102013.69;693888;28;1218;-80
2023/05/19 00:27:20;;;;;;;11.07;6.57;;;;;;;6.41;71.10;102011.88;691198;28;1372;-80
2023/05/19 00:27:41;;;;;;;9.82;6.50;;;;;;;6.39;71.40;102019.56;693838;28;1075;-80
2023/05/19 00:28:02;;;;;;;9.02;6.78;;;;;;;6.34;71.30;102007.09;694129;28;1052;-80
2023/05/19 00:28:22;;;;;;;10.10;7.30;;;;;;;6.36;71.54;102006.41;689307;28;954;-79
2023/05/19 00:28:43;;;;;;;12.02;7.43;;;;;;;6.42;71.17;102016.28;688518;28;1187;-80
2023/05/19 00:29:04;;;;;;;12.13;7.40;;;;;;;6.26;71.50;102011.78;686321;28;1014;-80
2023/05/19 00:29:24;;;;;;;11.52;6.97;;;;;;;6.34;71.27;102020.06;688498;28;1207;-80
2023/05/19 00:29:46;;;;;;;9.52;6.82;;;;;;;6.30;71.45;102011.19;691077;28;1125;-80
2023/05/19 00:30:07;;;;;;;9.55;6.72;;;;;;;6.39;71.82;102022.16;688649;28;1027;-80
2023/05/19 00:30:28;;;;;;;9.25;6.60;;;;;;;6.33;71.06;102007.91;691144;28;1173;-80
2023/05/19 00:30:50;;;;;;;11.00;6.57;;;;;;;6.35;71.29;102017.56;695480;28;1295;-80
2023/05/19 00:31:10;;;;;;;10.98;6.70;;;;;;;6.34;71.42;102014.88;694004;28;1398;-80
2023/05/19 00:31:32;;;;;;;10.83;6.80;;;;;;;6.34;71.56;102015.78;691032;28;1290;-80
2023/05/19 00:31:55;;;;;;;8.90;6.85;;;;;;;6.40;71.47;102030.84;694055;28;2039;-80
2023/05/19 00:32:15;;;;;;;9.57;6.70;;;;;;;6.30;71.30;102018.97;694066;28;932;-79
2023/05/19 00:32:36;;;;;;;11.00;6.77;;;;;;;6.29;70.96;102011.97;691116;28;1073;-80
2023/05/19 00:32:57;;;;;;;11.27;6.63;;;;;;;6.24;71.00;102000.41;688770;28;1156;-80
2023/05/19 00:33:18;;;;;;;12.30;6.47;;;;;;;6.24;71.78;102009.09;693776;28;1429;-80
2023/05/19 00:33:38;;;;;;;10.70;6.33;;;;;;;6.22;71.40;102002.00;691164;28;1106;-80
2023/05/19 00:33:59;;;;;;;10.57;6.20;;;;;;;6.23;71.48;102003.78;694085;28;1129;-80
2023/05/19 00:34:19;;;;;;;9.25;6.30;;;;;;;6.27;71.42;102009.28;688550;28;1156;-80
2023/05/19 00:34:40;;;;;;;9.90;6.83;;;;;;;6.28;71.80;102016.25;691109;28;1200;-80
2023/05/19 00:35:01;;;;;;;10.40;6.90;;;;;;;6.34;71.73;102022.66;694211;28;897;-80
2023/05/19 00:35:22;;;;;;;10.30;7.00;;;;;;;6.27;71.62;102006.69;693999;28;1176;-80
2023/05/19 00:35:43;;;;;;;9.82;6.90;;;;;;;6.28;71.47;102016.25;693715;28;1557;-80
2023/05/19 00:36:05;;;;;;;9.10;6.97;;;;;;;6.33;71.72;102023.44;691339;28;1174;-80
2023/05/19 00:36:26;;;;;;;9.13;6.93;;;;;;;6.27;71.86;102013.59;688299;28;1961;-82
2023/05/19 00:36:46;;;;;;;10.23;7.33;;;;;;;6.26;71.64;102011.78;688281;28;1180;-82
2023/05/19 00:37:07;;;;;;;10.48;7.30;;;;;;;6.27;71.90;102008.41;688761;28;827;-81
2023/05/19 00:37:28;;;;;;;10.27;6.93;;;;;;;6.25;72.23;102008.28;691107;28;1127;-82
2023/05/19 00:37:49;;;;;;;9.80;6.82;;;;;;;6.23;71.66;102014.16;693983;28;1118;-82
2023/05/19 00:38:09;;;;;;;10.73;6.85;;;;;;;6.20;72.13;102001.91;691342;28;1308;-82
2023/05/19 00:38:32;;;;;;;10.50;6.70;;;;;;;6.25;72.23;102016.06;685543;28;1091;-82
2023/05/19 00:38:53;;;;;;;10.23;6.45;;;;;;;6.22;72.11;102004.59;688669;28;1930;-82
2023/05/19 00:39:13;;;;;;;10.43;6.78;;;;;;;6.23;71.84;102008.97;688465;28;1240;-81
2023/05/19 00:39:34;;;;;;;9.80;6.80;;;;;;;6.24;72.08;102014.28;688376;28;1282;-82
2023/05/19 00:39:55;;;;;;;10.80;6.97;;;;;;;6.15;72.21;102004.19;696829;28;1135;-82
2023/05/19 00:40:15;;;;;;;11.10;7.00;;;;;;;6.16;72.24;101997.31;696909;28;1052;-82
2023/05/19 00:40:36;;;;;;;12.10;7.20;;;;;;;6.20;72.43;102007.06;691434;28;1115;-82
2023/05/19 00:40:57;;;;;;;10.07;7.10;;;;;;;6.24;72.31;102019.47;688966;28;1305;-82
2023/05/19 00:41:18;;;;;;;10.85;7.25;;;;;;;6.17;72.45;102001.69;691548;28;1188;-82
2023/05/19 00:41:38;;;;;;;9.40;7.10;;;;;;;6.22;72.38;102013.28;688677;28;1142;-82
2023/05/19 00:41:59;;;;;;;11.68;7.40;;;;;;;6.16;72.47;102002.50;685461;28;1040;-82
2023/05/19 00:42:20;;;;;;;10.65;7.10;;;;;;;6.19;72.14;102007.88;694218;28;1169;-82
2023/05/19 00:42:41;;;;;;;11.98;7.18;;;;;;;6.18;72.17;102008.69;694303;28;1103;-82
2023/05/19 00:43:04;;;;;;;9.73;6.82;;;;;;;6.19;72.37;102012.19;694450;28;1136;-83
2023/05/19 00:43:25;;;;;;;10.15;7.10;;;;;;;6.21;72.66;102014.09;697069;28;999;-82
2023/05/19 00:43:45;;;;;;;10.20;6.88;;;;;;;6.19;72.49;102010.47;697145;28;1094;-82
2023/05/19 00:44:06;;;;;;;11.00;7.00;;;;;;;6.20;72.56;102007.06;694541;28;1113;-82
2023/05/19 00:44:28;;;;;;;11.60;7.10;;;;;;;6.16;72.63;101999.91;694520;28;1010;-82
2023/05/19 00:44:49;;;;;;;10.25;7.10;;;;;;;6.27;72.61;102024.84;686257;28;1072;-81
2023/05/19 00:45:10;;;;;;;10.02;7.03;;;;;;;6.16;72.46;102005.09;686388;28;1272;-82
2023/05/19 00:45:31;;;;;;;9.48;7.05;;;;;;;6.20;72.29;102014.84;688919;28;1193;-82
2023/05/19 00:45:52;;;;;;;8.63;7.20;;;;;;;6.14;72.86;101996.34;689106;28;720;-82
2023/05/19 00:46:12;;;;;;;9.00;7.15;;;;;;;6.19;72.48;102010.47;691665;28;1549;-83
2023/05/19 00:46:33;;;;;;;9.00;7.10;;;;;;;6.17;72.69;102014.66;691547;28;1446;-83
2023/05/19 00:46:53;;;;;;;9.77;6.90;;;;;;;6.13;72.73;102007.47;694187;28;1272;-81
2023/05/19 00:47:17;;;;;;;9.80;6.60;;;;;;;6.14;72.76;102007.56;691688;28;1146;-82
2023/05/19 00:47:38;;;;;;;11.73;6.63;;;;;;;6.15;73.13;102008.50;694314;28;1043;-82
2023/05/19 00:47:58;;;;;;;12.45;6.57;;;;;;;6.16;72.87;102011.16;691502;28;1067;-82
2023/05/19 00:48:20;;;;;;;11.07;6.65;;;;;;;6.12;72.71;102003.09;691436;28;1195;-81
2023/05/19 00:48:43;;;;;;;13.00;6.68;;;;;;;6.13;72.91;102000.59;688664;28;1122;-82
2023/05/19 00:49:04;;;;;;;11.23;6.50;;;;;;;6.16;72.63;102011.16;688860;28;1016;-81
2023/05/19 00:49:24;;;;;;;11.32;6.72;;;;;;;6.15;72.58;102011.09;691428;28;1113;-82
2023/05/19 00:49:45;;;;;;;10.03;6.73;;;;;;;6.14;72.62;102009.28;688674;28;1009;-82
2023/05/19 00:50:06;;;;;;;10.18;6.97;;;;;;;6.15;72.98;102013.69;691513;28;1165;-80
2023/05/19 00:50:27;;;;;;;10.75;6.97;;;;;;;6.16;72.46;102011.16;691226;28;1156;-80
2023/05/19 00:50:49;;;;;;;12.38;7.32;;;;;;;6.15;72.58;102006.78;688622;28;1373;-80
2023/05/19 00:51:13;;;;;;;13.93;7.68;;;;;;;6.27;72.90;102029.13;688748;28;1070;-80
2023/05/19 00:51:34;;;;;;;13.00;7.60;;;;;;;6.24;72.51;102026.31;691024;28;1306;-80
2023/05/19 00:51:56;;;;;;;11.45;7.00;;;;;;;6.17;72.56;102012.06;688811;28;792;-80
2023/05/19 00:52:16;;;;;;;10.82;6.82;;;;;;;6.16;72.54;102015.47;691153;28;1217;-80
2023/05/19 00:52:37;;;;;;;12.05;6.60;;;;;;;6.15;72.58;102009.38;688443;28;1501;-80
2023/05/19 00:52:57;;;;;;;11.37;6.70;;;;;;;6.14;72.57;102004.09;691478;28;932;-79
2023/05/19 00:53:18;;;;;;;10.80;6.43;;;;;;;6.14;72.64;102004.97;694062;28;1210;-80
2023/05/19 00:53:39;;;;;;;9.10;6.60;;;;;;;6.19;72.81;102020.84;693816;28;1077;-80
2023/05/19 00:53:59;;;;;;;10.05;6.60;;;;;;;6.20;72.99;102009.66;694121;28;1211;-80
2023/05/19 00:54:20;;;;;;;9.63;6.88;;;;;;;6.23;72.63;102008.97;690989;28;1343;-80
2023/05/19 00:54:43;;;;;;;12.33;7.10;;;;;;;6.12;72.94;102008.25;691260;28;1134;-79
2023/05/19 00:55:04;;;;;;;12.25;7.00;;;;;;;6.12;72.59;102003.09;688599;28;1104;-80
2023/05/19 00:55:30;;;;;;;12.70;7.10;;;;;;;6.20;72.50;102014.84;691021;28;1331;-80
2023/05/19 00:55:51;;;;;;;10.55;7.30;;;;;;;6.21;72.53;102008.00;691371;28;842;-80
2023/05/19 00:56:11;;;;;;;10.10;7.10;;;;;;;6.08;72.34;102001.97;688728;28;1103;-79
2023/05/19 00:56:32;;;;;;;10.50;7.20;;;;;;;6.11;72.76;102007.38;688189;28;1974;-80
2023/05/19 00:56:55;;;;;;;10.05;7.00;;;;;;;6.13;72.57;102004.88;691184;28;1231;-82
2023/05/19 00:57:17;;;;;;;9.45;7.00;;;;;;;6.16;72.37;102007.69;688373;28;1144;-82
2023/05/19 00:57:38;;;;;;;9.27;6.95;;;;;;;6.19;72.77;102015.66;688495;28;1002;-81
2023/05/19 00:57:59;;;;;;;10.50;7.28;;;;;;;6.19;72.56;102010.47;691418;28;822;-80
2023/05/19 00:58:22;;;;;;;12.13;7.28;;;;;;;6.15;72.12;102003.31;688491;28;1279;-80
2023/05/19 00:58:44;;;;;;;12.60;6.85;;;;;;;6.29;72.13;102022.34;688259;28;1067;-80
2023/05/19 00:59:05;;;;;;;11.10;6.53;;;;;;;6.26;72.22;102017.84;688540;28;1013;-80
2023/05/19 00:59:26;;;;;;;8.25;6.45;;;;;;;6.21;72.42;102008.91;693930;28;984;-80
2023/05/19 00:59:47;;;;;;;10.68;6.80;;;;;;;6.20;72.09;102012.25;691188;28;1320;-80
2023/05/19 01:00:10;;;;;;;11.20;6.88;;;;;;;6.16;71.98;102007.69;688586;28;1279;-80
2023/05/19 01:00:30;;;;;;;10.30;6.72;;;;;;;6.22;72.00;102014.97;688337;28;1150;-80
2023/05/19 01:00:51;;;;;;;8.53;6.53;;;;;;;6.20;72.29;102007.06;691384;28;864;-81
2023/05/19 01:01:13;;;;;;;9.23;6.57;;;;;;;6.19;72.20;102015.66;688560;28;1300;-80
2023/05/19 01:01:33;;;;;;;10.02;6.80;;;;;;;6.21;71.95;102016.69;688077;28;1089;-80
2023/05/19 01:01:54;;;;;;;10.63;7.00;;;;;;;6.29;72.24;102035.31;691429;28;1279;-79
2023/05/19 01:02:15;;;;;;;10.18;6.90;;;;;;;6.16;72.00;102007.69;688397;28;1188;-80
2023/05/19 01:02:38;;;;;;;9.90;6.90;;;;;;;6.15;72.28;102005.91;691046;28;1281;-80
2023/05/19 01:02:59;;;;;;;9.95;6.60;;;;;;;6.24;72.58;102029.84;694162;28;743;-80
2023/05/19 01:03:21;;;;;;;9.23;6.20;;;;;;;6.16;72.26;102015.47;693975;28;1224;-82
2023/05/19 01:03:43;;;;;;;9.50;6.20;;;;;;;6.23;72.00;102025.44;691017;28;1292;-82
2023/05/19 01:04:04;;;;;;;9.23;6.57;;;;;;;6.13;72.18;102005.78;688634;28;1013;-82
2023/05/19 01:04:25;;;;;;;10.35;7.10;;;;;;;6.14;72.17;102006.69;693901;28;1214;-82
2023/05/19 01:04:46;;;;;;;10.65;7.20;;;;;;;6.12;72.34;102014.38;693860;28;1334;-82
2023/05/19 01:05:08;;;;;;;12.05;7.28;;;;;;;6.17;72.16;102019.84;691325;28;1096;-82
2023/05/19 01:05:28;;;;;;;11.65;7.25;;;;;;;6.14;72.52;102011.88;693741;28;1085;-82
2023/05/19 01:05:52;;;;;;;11.20;7.00;;;;;;;6.11;72.43;102006.47;693926;28;1213;-82
2023/05/19 01:06:13;;;;;;;11.77;6.80;;;;;;;6.11;72.66;102011.66;693789;28;1054;-82
2023/05/19 01:06:37;;;;;;;10.88;6.72;;;;;;;6.03;72.40;101996.50;693666;28;1218;-82
2023/05/19 01:06:57;;;;;;;10.75;6.53;;;;;;;6.06;72.64;102000.13;691016;28;1278;-82
2023/05/19 01:07:20;;;;;;;9.55;6.20;;;;;;;6.14;72.75;102023.13;691184;28;1059;-81
2023/05/19 01:07:41;;;;;;;8.57;6.07;;;;;;;6.09;72.58;102008.06;688326;28;1273;-82
2023/05/19 01:08:02;;;;;;;9.40;6.40;;;;;;;6.15;72.43;102019.75;691405;28;799;-82
2023/05/19 01:08:23;;;;;;;8.80;6.20;;;;;;;6.06;72.99;102008.75;691184;28;1129;-82
2023/05/19 01:08:44;;;;;;;11.18;6.70;;;;;;;6.05;72.60;102006.06;691009;28;1174;-82
2023/05/19 01:09:07;;;;;;;10.80;6.38;;;;;;;6.05;72.76;102008.66;688439;28;1240;-82
2023/05/19 01:09:30;;;;;;;10.55;6.57;;;;;;;6.07;72.71;102009.69;690971;28;1271;-82
2023/05/19 01:09:51;;;;;;;10.40;6.70;;;;;;;6.16;72.74;102023.25;693839;28;1431;-82
2023/05/19 01:10:12;;;;;;;10.60;6.70;;;;;;;6.06;72.56;102007.88;691282;28;1079;-82
2023/05/19 01:10:32;;;;;;;12.30;6.80;;;;;;;6.07;73.04;102004.50;693568;28;1112;-82
2023/05/19 01:10:53;;;;;;;11.57;6.90;;;;;;;6.01;72.42;101998.09;691230;28;1196;-82
2023/05/19 01:11:14;;;;;;;12.23;7.30;;;;;;;6.00;72.79;101992.81;696650;28;1163;-82
2023/05/19 01:11:34;;;;;;;10.07;7.20;;;;;;;6.03;72.92;102006.88;699107;28;1375;-82
2023/05/19 01:11:55;;;;;;;10.00;7.05;;;;;;;6.08;72.79;102006.28;691376;28;1498;-83
2023/05/19 01:12:17;;;;;;;9.00;6.80;;;;;;;6.03;72.78;102009.44;690986;28;1292;-82
2023/05/19 01:12:39;;;;;;;8.73;6.50;;;;;;;6.13;72.31;102015.25;690921;28;1277;-82
2023/05/19 01:13:04;;;;;;;8.60;6.70;;;;;;;6.01;72.71;102000.69;691334;28;866;-82
2023/05/19 01:13:26;;;;;;;9.85;6.85;;;;;;;6.09;72.97;102016.75;688232;28;1357;-82
2023/05/19 01:13:47;;;;;;;11.27;6.82;;;;;;;6.07;73.07;102010.56;691101;28;1247;-82
2023/05/19 01:14:08;;;;;;;10.32;6.75;;;;;;;6.06;73.05;102015.66;691188;28;1279;-82
2023/05/19 01:14:29;;;;;;;9.25;6.70;;;;;;;6.09;72.79;102018.44;693667;28;1126;-82
2023/05/19 01:14:49;;;;;;;7.80;6.80;;;;;;;5.97;72.67;101998.69;691180;28;1309;-82
2023/05/19 01:15:11;;;;;;;8.20;6.60;;;;;;;5.99;72.90;102006.56;691308;28;1188;-82
2023/05/19 01:15:41;;;;;;;9.40;6.90;;;;;;;5.97;72.54;102001.28;690751;28;1416;-82
2023/05/19 01:16:11;;;;;;;9.63;6.90;;;;;;;5.93;72.75;102001.88;688548;28;911;-82
2023/05/19 01:16:38;;;;;;;9.30;6.63;;;;;;;5.94;72.86;102010.56;690821;28;1914;-82
2023/05/19 01:17:54;;;;;;;9.70;6.72;;;;;;;5.80;73.11;102005.34;691097;28;1345;-82
2023/05/19 01:18:22;;;;;;;10.00;6.53;;;;;;;5.83;73.40;102004.66;689156;28;1373;-83
2023/05/19 01:18:54;;;;;;;9.48;6.60;;;;;;;5.99;73.16;102019.50;688953;28;1136;-81
2023/05/19 01:19:45;;;;;;;11.60;7.10;;;;;;;5.92;73.22;102000.06;690506;28;1254;-82
2023/05/19 01:20:18;;;;;;;11.52;6.53;;;;;;;5.98;72.84;102004.78;690968;28;1282;-82
2023/05/19 01:20:51;;;;;;;11.77;6.97;;;;;;;5.93;72.78;102007.06;693603;28;1072;-83
2023/05/19 01:21:35;;;;;;;9.68;7.20;;;;;;;6.00;73.25;102026.50;691195;28;1106;-82
2023/05/19 01:22:29;;;;;;;11.57;7.30;;;;;;;5.99;72.92;102003.97;691343;28;882;-82
2023/05/19 01:23:09;;;;;;;11.63;7.30;;;;;;;6.03;72.81;102014.63;691183;28;1089;-82
2023/05/19 01:23:55;;;;;;;9.95;6.95;;;;;;;6.06;72.87;102018.25;690829;28;1099;-81
2023/05/19 01:24:22;;;;;;;9.27;6.70;;;;;;;5.86;73.30;102013.53;688333;28;1113;-82
2023/05/19 01:25:10;;;;;;;9.25;6.65;;;;;;;5.82;73.63;102023.59;685576;28;2008;-82
2023/05/19 01:25:43;;;;;;;9.98;6.80;;;;;;;5.80;73.40;102025.16;690578;28;1159;-83
2023/05/19 01:26:40;;;;;;;9.32;6.70;;;;;;;5.79;74.02;102024.28;693946;28;1145;-82
2023/05/19 01:27:19;;;;;;;9.70;6.82;;;;;;;5.78;74.13;102021.56;691219;28;1478;-82
2023/05/19 01:27:53;;;;;;;11.18;7.15;;;;;;;5.75;74.13;102028.34;691034;28;1320;-82
2023/05/19 01:28:38;;;;;;;12.68;7.10;;;;;;;5.75;74.36;102020.56;691146;28;1104;-82
2023/05/19 01:29:02;;;;;;;11.98;6.72;;;;;;;5.73;74.03;102019.56;685871;28;832;-82
2023/05/19 01:29:41;;;;;;;9.75;6.45;;;;;;;5.72;74.29;102025.53;691270;28;985;-82
2023/05/19 01:30:14;;;;;;;11.40;7.00;;;;;;;5.70;74.30;102015.88;692285;28;927;-83
2023/05/19 01:30:45;;;;;;;11.65;6.75;;;;;;;5.68;74.45;102020.03;694581;28;1029;-82
2023/05/19 01:31:09;;;;;;;10.95;6.88;;;;;;;5.55;74.21;102003.66;697511;28;1181;-82
2023/05/19 01:31:30;;;;;;;9.77;7.07;;;;;;;5.66;74.30;102019.94;694523;28;1077;-83
2023/05/19 01:31:54;;;;;;;10.55;7.30;;;;;;;5.58;74.22;102005.59;694830;28;1222;-83
2023/05/19 01:32:18;;;;;;;10.73;7.32;;;;;;;5.62;74.32;102007.56;694643;28;1138;-82
2023/05/19 01:32:40;;;;;;;10.50;7.40;;;;;;;5.55;74.64;102000.16;691967;28;1096;-82
2023/05/19 01:33:06;;;;;;;8.85;7.18;;;;;;;5.61;74.47;102010.97;692071;28;1207;-82
2023/05/19 01:33:29;;;;;;;9.00;6.90;;;;;;;5.55;74.68;102000.16;691853;28;1158;-82
2023/05/19 01:33:52;;;;;;;9.32;6.53;;;;;;;5.56;75.17;102017.50;694560;28;1057;-81
2023/05/19 01:34:15;;;;;;;10.77;6.80;;;;;;;5.47;74.88;102005.72;694724;28;1010;-83
2023/05/19 01:34:40;;;;;;;10.27;7.18;;;;;;;5.51;75.20;102016.31;693882;28;1089;-82
2023/05/19 01:35:04;;;;;;;11.98;7.18;;;;;;;5.54;75.19;102021.69;697323;28;946;-82
2023/05/19 01:35:25;;;;;;;11.85;6.80;;;;;;;5.51;74.98;102000.78;691226;28;1100;-82
2023/05/19 01:35:48;;;;;;;11.93;7.00;;;;;;;5.60;75.05;102017.81;689616;28;1213;-82
2023/05/19 01:36:11;;;;;;;9.98;6.97;;;;;;;5.51;75.51;102000.78;686924;28;1253;-82
2023/05/19 01:36:32;;;;;;;9.80;6.90;;;;;;;5.58;75.48;102018.53;689795;28;1891;-81
2023/05/19 01:36:54;;;;;;;10.68;6.93;;;;;;;5.43;74.97;102001.13;692754;28;1231;-81
2023/05/19 01:37:16;;;;;;;10.73;7.10;;;;;;;5.45;75.19;102002.13;689704;28;1293;-82
2023/05/19 01:37:39;;;;;;;9.95;7.00;;;;;;;5.58;75.25;102013.34;689333;28;1164;-81
2023/05/19 01:38:06;;;;;;;9.43;6.95;;;;;;;5.60;75.25;102023.00;686667;28;2044;-81
2023/05/19 01:38:29;;;;;;;10.88;7.10;;;;;;;5.48;75.38;101998.88;689137;28;1110;-82
2023/05/19 01:38:54;;;;;;;12.73;7.28;;;;;;;5.48;75.04;101996.28;691769;28;1371;-82
2023/05/19 01:39:16;;;;;;;10.25;6.95;;;;;;;5.47;75.41;102000.53;691703;28;1127;-82
2023/05/19 01:39:38;;;;;;;10.30;6.95;;;;;;;5.48;75.15;101998.88;691596;28;1064;-81
2023/05/19 01:39:59;;;;;;;9.75;6.53;;;;;;;5.52;75.26;102002.56;691873;28;784;-82
2023/05/19 01:40:22;;;;;;;9.75;6.80;;;;;;;5.47;75.31;101989.31;691646;28;979;-81
2023/05/19 01:40:45;;;;;;;10.55;7.05;;;;;;;5.53;75.29;102009.53;691615;28;973;-81
2023/05/19 01:41:08;;;;;;;9.70;6.63;;;;;;;5.51;75.34;102003.34;691598;28;937;-82
2023/05/19 01:41:31;;;;;;;9.60;6.97;;;;;;;5.51;75.35;102005.94;691486;28;1101;-81
2023/05/19 01:41:53;;;;;;;10.38;7.10;;;;;;;5.54;75.44;102012.25;691587;28;1565;-81
2023/05/19 01:42:16;;;;;;;12.43;7.72;;;;;;;5.51;75.43;102011.13;688846;28;1008;-81
2023/05/19 01:42:39;;;;;;;12.63;7.80;;;;;;;5.47;75.61;102005.72;691271;28;1131;-82
2023/05/19 01:43:00;;;;;;;13.05;7.60;;;;;;;5.45;75.05;102001.22;691498;28;1403;-82
2023/05/19 01:43:24;;;;;;;12.18;7.13;;;;;;;5.39;75.45;101996.53;688732;28;1047;-81
2023/05/19 01:43:46;;;;;;;12.50;7.35;;;;;;;5.43;75.39;102011.50;688558;28;1333;-81
2023/05/19 01:44:07;;;;;;;10.85;7.30;;;;;;;5.45;75.28;102017.66;691409;28;1611;-81
2023/05/19 01:44:28;;;;;;;10.13;7.20;;;;;;;5.35;75.42;101999.72;691323;28;1141;-82
2023/05/19 01:44:50;;;;;;;10.32;7.28;;;;;;;5.37;75.63;102003.28;693992;28;1266;-81
2023/05/19 01:45:11;;;;;;;11.50;7.35;;;;;;;5.36;75.31;101998.91;694087;28;1080;-82
2023/05/19 01:45:33;;;;;;;10.93;7.25;;;;;;;5.32;75.45;101995.22;690999;28;1199;-83
2023/05/19 01:45:56;;;;;;;9.75;7.18;;;;;;;5.42;75.54;102004.53;691406;28;1254;-83
2023/05/19 01:46:17;;;;;;;9.50;7.00;;;;;;;5.44;75.36;102015.88;693894;28;1179;-81
2023/05/19 01:46:38;;;;;;;9.13;6.85;;;;;;;5.35;75.46;101999.72;691074;28;1134;-82
2023/05/19 01:46:59;;;;;;;9.63;6.95;;;;;;;5.43;75.44;102014.09;691459;28;847;-82
2023/05/19 01:47:21;;;;;;;12.88;7.25;;;;;;;5.30;75.43;101998.47;693961;28;1020;-81
2023/05/19 01:47:43;;;;;;;13.40;7.45;;;;;;;5.34;75.63;102005.69;688496;28;1102;-82
2023/05/19 01:48:04;;;;;;;13.00;7.40;;;;;;;5.42;75.38;102020.06;691286;28;1106;-81
2023/05/19 01:48:26;;;;;;;9.63;6.97;;;;;;;5.34;75.43;102003.09;688365;28;1112;-82
2023/05/19 01:48:47;;;;;;;10.20;7.10;;;;;;;5.28;75.72;101993.19;689349;28;986;-82
2023/05/19 01:49:08;;;;;;;9.77;7.20;;;;;;;5.33;75.60;102003.84;691287;28;980;-81
2023/05/19 01:49:28;;;;;;;11.57;7.28;;;;;;;5.31;75.76;101998.59;688354;28;1280;-82
2023/05/19 01:49:49;;;;;;;10.27;7.00;;;;;;;5.33;75.80;101997.00;691237;28;1139;-82
2023/05/19 01:50:10;;;;;;;10.40;7.00;;;;;;;5.33;75.62;101994.41;691348;28;996;-82
2023/05/19 01:50:32;;;;;;;8.48;6.97;;;;;;;5.41;75.80;102010.47;693664;28;1131;-82
2023/05/19 01:50:53;;;;;;;9.52;7.00;;;;;;;5.30;75.53;101990.72;691241;28;1425;-82
2023/05/19 01:51:14;;;;;;;10.57;7.00;;;;;;;5.33;76.02;102001.28;688341;28;1159;-82